sensor_id;sensor_type;location;lat;lon;timestamp;pressure;altitude;pressure_sealevel;temperature;humidity
9035;BME280;4552;43.422;24.592;2024-01-07T00:01:14;98495.13;;;7.98;100.00
9035;BME280;4552;43.422;24.592;2024-01-07T00:03:41;98494.59;;;7.87;100.00
9035;BME280;4552;43.422;24.592;2024-01-07T00:06:09;98481.06;;;8.05;100.00
9035;BME280;4552;43.422;24.592;2024-01-07T00:08:38;98494.41;;;8.26;100.00
9035;BME280;4552;43.422;24.592;2024-01-07T00:21:10;98472.44;;;8.64;100.00
9035;BME280;4552;43.422;24.592;2024-01-07T00:23:38;98468.91;;;8.66;100.00
9035;BME280;4552;43.422;24.592;2024-01-07T00:49:39;98436.84;;;8.63;100.00
9035;BME280;4552;43.422;24.592;2024-01-07T00:52:07;98430.94;;;8.27;100.00
9035;BME280;4552;43.422;24.592;2024-01-07T01:01:06;98399.75;;;8.53;100.00
9035;BME280;4552;43.422;24.592;2024-01-07T01:03:33;98398.38;;;8.11;100.00
9035;BME280;4552;43.422;24.592;2024-01-07T01:06:02;98372.66;;;7.38;100.00
9035;BME280;4552;43.422;24.592;2024-01-07T01:08:29;98387.72;;;7.58;100.00
9035;BME280;4552;43.422;24.592;2024-01-07T01:10:56;98419.94;;;7.54;100.00
9035;BME280;4552;43.422;24.592;2024-01-07T01:13:23;98416.53;;;7.52;100.00
9035;BME280;4552;43.422;24.592;2024-01-07T01:15:50;98400.06;;;7.51;100.00
9035;BME280;4552;43.422;24.592;2024-01-07T01:18:18;98379.69;;;7.35;100.00
9035;BME280;4552;43.422;24.592;2024-01-07T01:20:45;98398.09;;;7.59;100.00
9035;BME280;4552;43.422;24.592;2024-01-07T01:23:13;98388.78;;;7.51;100.00
9035;BME280;4552;43.422;24.592;2024-01-07T01:25:40;98385.75;;;7.00;100.00
9035;BME280;4552;43.422;24.592;2024-01-07T01:28:07;98381.25;;;7.06;100.00
9035;BME280;4552;43.422;24.592;2024-01-07T01:30:34;98388.31;;;7.01;100.00
9035;BME280;4552;43.422;24.592;2024-01-07T01:33:01;98363.94;;;7.05;100.00
9035;BME280;4552;43.422;24.592;2024-01-07T01:35:28;98363.63;;;7.18;100.00
9035;BME280;4552;43.422;24.592;2024-01-07T01:37:55;98370.88;;;7.05;100.00
9035;BME280;4552;43.422;24.592;2024-01-07T01:47:07;98331.88;;;7.05;100.00
9035;BME280;4552;43.422;24.592;2024-01-07T01:49:35;98323.88;;;7.13;100.00
9035;BME280;4552;43.422;24.592;2024-01-07T01:52:04;98327.47;;;7.08;100.00
9035;BME280;4552;43.422;24.592;2024-01-07T01:54:31;98316.78;;;6.85;100.00
9035;BME280;4552;43.422;24.592;2024-01-07T01:56:58;98333.41;;;6.80;100.00
9035;BME280;4552;43.422;24.592;2024-01-07T01:59:25;98325.75;;;6.74;100.00
9035;BME280;4552;43.422;24.592;2024-01-07T02:01:52;98319.75;;;6.70;100.00
9035;BME280;4552;43.422;24.592;2024-01-07T02:04:22;98330.16;;;6.70;100.00
9035;BME280;4552;43.422;24.592;2024-01-07T02:06:49;98335.34;;;6.70;100.00
9035;BME280;4552;43.422;24.592;2024-01-07T02:19:09;98294.97;;;6.91;100.00
9035;BME280;4552;43.422;24.592;2024-01-07T02:21:38;98296.66;;;6.93;100.00
9035;BME280;4552;43.422;24.592;2024-01-07T02:24:15;98285.00;;;6.74;100.00
9035;BME280;4552;43.422;24.592;2024-01-07T02:26:42;98284.31;;;6.66;100.00
9035;BME280;4552;43.422;24.592;2024-01-07T02:29:09;98277.34;;;6.68;100.00
9035;BME280;4552;43.422;24.592;2024-01-07T02:31:36;98266.66;;;6.45;100.00
9035;BME280;4552;43.422;24.592;2024-01-07T02:34:03;98272.00;;;6.39;100.00
9035;BME280;4552;43.422;24.592;2024-01-07T02:36:30;98282.31;;;6.42;100.00
9035;BME280;4552;43.422;24.592;2024-01-07T02:38:56;98291.97;;;6.37;100.00
9035;BME280;4552;43.422;24.592;2024-01-07T02:41:25;98284.81;;;6.47;100.00
9035;BME280;4552;43.422;24.592;2024-01-07T02:43:52;98273.34;;;6.55;100.00
9035;BME280;4552;43.422;24.592;2024-01-07T02:46:19;98279.69;;;6.44;100.00
9035;BME280;4552;43.422;24.592;2024-01-07T02:48:46;98282.19;;;6.48;100.00
9035;BME280;4552;43.422;24.592;2024-01-07T02:51:13;98285.25;;;6.29;100.00
9035;BME280;4552;43.422;24.592;2024-01-07T02:53:40;98271.38;;;6.30;100.00
9035;BME280;4552;43.422;24.592;2024-01-07T02:59:30;98264.88;;;6.47;100.00
9035;BME280;4552;43.422;24.592;2024-01-07T03:01:57;98260.06;;;6.32;100.00
9035;BME280;4552;43.422;24.592;2024-01-07T03:04:24;98260.72;;;6.40;100.00
9035;BME280;4552;43.422;24.592;2024-01-07T03:06:51;98240.34;;;6.24;100.00
9035;BME280;4552;43.422;24.592;2024-01-07T03:09:18;98244.69;;;6.23;100.00
9035;BME280;4552;43.422;24.592;2024-01-07T03:11:44;98234.38;;;6.20;100.00
9035;BME280;4552;43.422;24.592;2024-01-07T03:14:11;98221.97;;;6.31;100.00
9035;BME280;4552;43.422;24.592;2024-01-07T03:16:40;98223.63;;;6.35;100.00
9035;BME280;4552;43.422;24.592;2024-01-07T03:19:07;98212.00;;;6.48;100.00
9035;BME280;4552;43.422;24.592;2024-01-07T03:21:34;98200.81;;;6.46;100.00
9035;BME280;4552;43.422;24.592;2024-01-07T03:24:00;98219.03;;;6.46;100.00
9035;BME280;4552;43.422;24.592;2024-01-07T03:29:49;98227.31;;;6.25;100.00
9035;BME280;4552;43.422;24.592;2024-01-07T03:32:18;98208.09;;;6.32;100.00
9035;BME280;4552;43.422;24.592;2024-01-07T03:34:45;98212.19;;;6.07;100.00
9035;BME280;4552;43.422;24.592;2024-01-07T03:37:12;98200.19;;;6.02;100.00
9035;BME280;4552;43.422;24.592;2024-01-07T03:39:39;98205.22;;;6.09;100.00
9035;BME280;4552;43.422;24.592;2024-01-07T03:42:06;98206.97;;;6.07;100.00
9035;BME280;4552;43.422;24.592;2024-01-07T03:44:37;98200.06;;;6.08;100.00
9035;BME280;4552;43.422;24.592;2024-01-07T03:47:04;98186.91;;;5.77;100.00
9035;BME280;4552;43.422;24.592;2024-01-07T03:49:32;98188.63;;;5.77;100.00
9035;BME280;4552;43.422;24.592;2024-01-07T03:51:59;98195.47;;;5.81;100.00
9035;BME280;4552;43.422;24.592;2024-01-07T04:01:16;98169.97;;;5.61;100.00
9035;BME280;4552;43.422;24.592;2024-01-07T04:03:42;98151.03;;;5.58;100.00
9035;BME280;4552;43.422;24.592;2024-01-07T04:06:11;98150.84;;;5.65;100.00
9035;BME280;4552;43.422;24.592;2024-01-07T04:08:38;98141.16;;;5.72;100.00
9035;BME280;4552;43.422;24.592;2024-01-07T04:11:05;98136.84;;;5.72;100.00
9035;BME280;4552;43.422;24.592;2024-01-07T04:13:32;98136.69;;;5.78;100.00
9035;BME280;4552;43.422;24.592;2024-01-07T04:15:59;98132.03;;;5.94;100.00
9035;BME280;4552;43.422;24.592;2024-01-07T04:18:25;98128.47;;;5.96;100.00
9035;BME280;4552;43.422;24.592;2024-01-07T04:20:52;98132.88;;;5.94;100.00
9035;BME280;4552;43.422;24.592;2024-01-07T04:23:21;98133.44;;;5.69;100.00
9035;BME280;4552;43.422;24.592;2024-01-07T04:32:31;98116.00;;;5.38;100.00
9035;BME280;4552;43.422;24.592;2024-01-07T04:34:58;98117.34;;;5.18;100.00
9035;BME280;4552;43.422;24.592;2024-01-07T04:37:25;98103.78;;;5.05;100.00
9035;BME280;4552;43.422;24.592;2024-01-07T04:39:53;98095.66;;;4.81;100.00
9035;BME280;4552;43.422;24.592;2024-01-07T04:42:20;98102.56;;;4.82;100.00
9035;BME280;4552;43.422;24.592;2024-01-07T04:44:47;98139.81;;;4.76;100.00
9035;BME280;4552;43.422;24.592;2024-01-07T04:47:25;98139.66;;;4.84;100.00
9035;BME280;4552;43.422;24.592;2024-01-07T04:49:53;98132.72;;;4.86;100.00
9035;BME280;4552;43.422;24.592;2024-01-07T04:52:22;98118.97;;;4.82;100.00
9035;BME280;4552;43.422;24.592;2024-01-07T04:54:50;98118.97;;;4.82;100.00
9035;BME280;4552;43.422;24.592;2024-01-07T04:57:18;98122.13;;;4.96;100.00
9035;BME280;4552;43.422;24.592;2024-01-07T04:59:45;98117.44;;;5.12;100.00
9035;BME280;4552;43.422;24.592;2024-01-07T05:02:13;98105.81;;;4.91;100.00
9035;BME280;4552;43.422;24.592;2024-01-07T05:04:41;98106.66;;;4.93;100.00
9035;BME280;4552;43.422;24.592;2024-01-07T05:07:08;98097.09;;;4.94;100.00
9035;BME280;4552;43.422;24.592;2024-01-07T05:36:31;98069.84;;;5.16;100.00
9035;BME280;4552;43.422;24.592;2024-01-07T05:38:57;98071.00;;;5.03;100.00
9035;BME280;4552;43.422;24.592;2024-01-07T06:23:00;98078.91;;;4.97;100.00
9035;BME280;4552;43.422;24.592;2024-01-07T06:25:27;98089.22;;;4.98;100.00
9035;BME280;4552;43.422;24.592;2024-01-07T06:27:54;98082.25;;;5.02;100.00
9035;BME280;4552;43.422;24.592;2024-01-07T06:30:21;98080.34;;;5.10;100.00
9035;BME280;4552;43.422;24.592;2024-01-07T06:32:47;98069.84;;;5.16;100.00
9035;BME280;4552;43.422;24.592;2024-01-07T06:35:14;98062.41;;;5.01;100.00
9035;BME280;4552;43.422;24.592;2024-01-07T06:37:41;98046.97;;;4.96;100.00
9035;BME280;4552;43.422;24.592;2024-01-07T07:14:18;98116.38;;;5.22;100.00
9035;BME280;4552;43.422;24.592;2024-01-07T07:16:45;98089.66;;;5.18;100.00
9035;BME280;4552;43.422;24.592;2024-01-07T07:19:12;98110.22;;;5.26;100.00
9035;BME280;4552;43.422;24.592;2024-01-07T07:21:41;98120.44;;;5.33;100.00
9035;BME280;4552;43.422;24.592;2024-01-07T07:24:08;98125.44;;;5.41;100.00
9035;BME280;4552;43.422;24.592;2024-01-07T07:26:35;98115.34;;;5.29;100.00
9035;BME280;4552;43.422;24.592;2024-01-07T07:29:06;98133.19;;;5.43;100.00
9035;BME280;4552;43.422;24.592;2024-01-07T07:31:36;98139.22;;;5.45;100.00
9035;BME280;4552;43.422;24.592;2024-01-07T07:34:03;98149.69;;;5.40;100.00
9035;BME280;4552;43.422;24.592;2024-01-07T07:36:30;98147.25;;;5.32;100.00
9035;BME280;4552;43.422;24.592;2024-01-07T07:38:57;98129.16;;;5.31;100.00
9035;BME280;4552;43.422;24.592;2024-01-07T07:41:24;98157.50;;;5.38;100.00
9035;BME280;4552;43.422;24.592;2024-01-07T07:43:51;98152.97;;;5.48;100.00
9035;BME280;4552;43.422;24.592;2024-01-07T07:46:18;98164.28;;;5.46;100.00
9035;BME280;4552;43.422;24.592;2024-01-07T07:48:46;98152.84;;;5.54;100.00
9035;BME280;4552;43.422;24.592;2024-01-07T07:51:14;98159.06;;;5.47;100.00
9035;BME280;4552;43.422;24.592;2024-01-07T07:53:41;98158.84;;;5.56;100.00
9035;BME280;4552;43.422;24.592;2024-01-07T07:59:30;98161.09;;;5.71;100.00
9035;BME280;4552;43.422;24.592;2024-01-07T08:01:57;98160.97;;;5.76;100.00
9035;BME280;4552;43.422;24.592;2024-01-07T08:04:25;98160.16;;;5.74;100.00
9035;BME280;4552;43.422;24.592;2024-01-07T08:06:53;98152.38;;;5.74;100.00
9035;BME280;4552;43.422;24.592;2024-01-07T08:09:21;98152.34;;;5.75;100.00
9035;BME280;4552;43.422;24.592;2024-01-07T08:21:45;98145.91;;;5.93;100.00
9035;BME280;4552;43.422;24.592;2024-01-07T08:24:15;98124.88;;;6.03;100.00
9035;BME280;4552;43.422;24.592;2024-01-07T08:26:42;98122.94;;;6.11;100.00
9035;BME280;4552;43.422;24.592;2024-01-07T08:29:08;98120.25;;;6.14;100.00
9035;BME280;4552;43.422;24.592;2024-01-07T08:31:35;98113.34;;;6.13;100.00
9035;BME280;4552;43.422;24.592;2024-01-07T08:34:02;98125.84;;;6.31;100.00
9035;BME280;4552;43.422;24.592;2024-01-07T08:36:29;98111.38;;;6.23;100.00
9035;BME280;4552;43.422;24.592;2024-01-07T08:38:58;98105.16;;;6.28;100.00
9035;BME280;4552;43.422;24.592;2024-01-07T08:41:25;98108.69;;;6.26;100.00
9035;BME280;4552;43.422;24.592;2024-01-07T08:43:52;98104.41;;;6.25;100.00
9035;BME280;4552;43.422;24.592;2024-01-07T08:46:20;98099.88;;;6.31;100.00
9035;BME280;4552;43.422;24.592;2024-01-07T08:48:47;98073.19;;;6.26;100.00
9035;BME280;4552;43.422;24.592;2024-01-07T08:51:14;98068.06;;;6.23;100.00
9035;BME280;4552;43.422;24.592;2024-01-07T08:53:41;98060.38;;;6.20;100.00
9035;BME280;4552;43.422;24.592;2024-01-07T09:02:53;98037.56;;;6.30;100.00
9035;BME280;4552;43.422;24.592;2024-01-07T09:05:20;98046.31;;;6.27;100.00
9035;BME280;4552;43.422;24.592;2024-01-07T09:07:47;98044.38;;;6.35;100.00
9035;BME280;4552;43.422;24.592;2024-01-07T09:10:13;98045.56;;;6.22;100.00
9035;BME280;4552;43.422;24.592;2024-01-07T09:12:40;98057.91;;;6.16;100.00
9035;BME280;4552;43.422;24.592;2024-01-07T09:15:08;98088.81;;;6.25;100.00
9035;BME280;4552;43.422;24.592;2024-01-07T09:17:35;98079.47;;;6.18;100.00
9035;BME280;4552;43.422;24.592;2024-01-07T09:20:06;98083.78;;;6.19;100.00
9035;BME280;4552;43.422;24.592;2024-01-07T09:22:33;98091.44;;;6.23;100.00
9035;BME280;4552;43.422;24.592;2024-01-07T10:05:23;98119.13;;;6.87;100.00
9035;BME280;4552;43.422;24.592;2024-01-07T10:07:50;98107.69;;;6.92;100.00
9035;BME280;4552;43.422;24.592;2024-01-07T10:16:58;98106.06;;;7.47;100.00
9035;BME280;4552;43.422;24.592;2024-01-07T10:19:25;98087.59;;;7.27;100.00
9035;BME280;4552;43.422;24.592;2024-01-07T10:22:04;98102.84;;;7.39;100.00
9035;BME280;4552;43.422;24.592;2024-01-07T10:24:35;98101.03;;;7.68;100.00
9035;BME280;4552;43.422;24.592;2024-01-07T10:27:04;98100.06;;;7.71;100.00
9035;BME280;4552;43.422;24.592;2024-01-07T10:29:32;98094.69;;;7.77;100.00
9035;BME280;4552;43.422;24.592;2024-01-07T10:32:00;98100.91;;;7.99;100.00
9035;BME280;4552;43.422;24.592;2024-01-07T10:34:29;98099.28;;;7.95;100.00
9035;BME280;4552;43.422;24.592;2024-01-07T10:36:59;98109.69;;;7.95;100.00
9035;BME280;4552;43.422;24.592;2024-01-07T10:39:27;98110.31;;;7.77;100.00
9035;BME280;4552;43.422;24.592;2024-01-07T10:45:37;98107.38;;;7.60;100.00
9035;BME280;4552;43.422;24.592;2024-01-07T10:48:06;98098.78;;;7.58;100.00
9035;BME280;4552;43.422;24.592;2024-01-07T10:50:34;98113.91;;;7.73;100.00
9035;BME280;4552;43.422;24.592;2024-01-07T10:53:03;98107.06;;;7.69;100.00
9035;BME280;4552;43.422;24.592;2024-01-07T11:02:14;98101.53;;;7.53;100.00
9035;BME280;4552;43.422;24.592;2024-01-07T11:04:48;98098.34;;;7.44;100.00
9035;BME280;4552;43.422;24.592;2024-01-07T11:07:21;98102.69;;;7.43;100.00
9035;BME280;4552;43.422;24.592;2024-01-07T11:10:02;98085.81;;;7.29;100.00
9035;BME280;4552;43.422;24.592;2024-01-07T11:12:32;98101.56;;;7.52;100.00
9035;BME280;4552;43.422;24.592;2024-01-07T11:14:59;98090.72;;;7.38;100.00
9035;BME280;4552;43.422;24.592;2024-01-07T11:18:02;98107.72;;;7.49;100.00
9035;BME280;4552;43.422;24.592;2024-01-07T11:20:31;98083.75;;;7.40;100.00
9035;BME280;4552;43.422;24.592;2024-01-07T11:23:29;98083.91;;;7.34;100.00
9035;BME280;4552;43.422;24.592;2024-01-07T11:26:01;98093.97;;;7.46;100.00
9035;BME280;4552;43.422;24.592;2024-01-07T11:28:47;98087.94;;;7.44;100.00
9035;BME280;4552;43.422;24.592;2024-01-07T11:31:14;98079.50;;;7.36;100.00
9035;BME280;4552;43.422;24.592;2024-01-07T11:33:44;98098.78;;;7.30;100.00
9035;BME280;4552;43.422;24.592;2024-01-07T11:36:12;98100.50;;;7.30;100.00
9035;BME280;4552;43.422;24.592;2024-01-07T11:38:42;98094.19;;;7.38;100.00
9035;BME280;4552;43.422;24.592;2024-01-07T12:15:50;98078.94;;;7.80;100.00
9035;BME280;4552;43.422;24.592;2024-01-07T12:18:20;98079.44;;;7.65;100.00
9035;BME280;4552;43.422;24.592;2024-01-07T12:20:55;98077.25;;;7.79;100.00
9035;BME280;4552;43.422;24.592;2024-01-07T12:23:23;98073.00;;;7.76;100.00
9035;BME280;4552;43.422;24.592;2024-01-07T12:25:51;98075.56;;;7.78;100.00
9035;BME280;4552;43.422;24.592;2024-01-07T12:28:18;98067.16;;;7.70;100.00
9035;BME280;4552;43.422;24.592;2024-01-07T12:30:47;98085.38;;;7.96;100.00
9035;BME280;4552;43.422;24.592;2024-01-07T12:33:19;98086.44;;;8.15;100.00
9035;BME280;4552;43.422;24.592;2024-01-07T12:35:47;98073.84;;;8.03;100.00
9035;BME280;4552;43.422;24.592;2024-01-07T12:38:14;98088.94;;;8.44;100.00
9035;BME280;4552;43.422;24.592;2024-01-07T12:40:41;98086.69;;;8.58;100.00
9035;BME280;4552;43.422;24.592;2024-01-07T12:43:08;98077.75;;;8.65;100.00
9035;BME280;4552;43.422;24.592;2024-01-07T12:45:35;98071.13;;;8.79;100.00
9035;BME280;4552;43.422;24.592;2024-01-07T12:48:02;98079.78;;;8.82;100.00
9035;BME280;4552;43.422;24.592;2024-01-07T12:50:31;98089.34;;;8.81;100.00
9035;BME280;4552;43.422;24.592;2024-01-07T12:52:58;98089.91;;;8.89;100.00
9035;BME280;4552;43.422;24.592;2024-01-07T13:02:09;98088.97;;;9.36;100.00
9035;BME280;4552;43.422;24.592;2024-01-07T13:04:36;98094.91;;;9.18;100.00
9035;BME280;4552;43.422;24.592;2024-01-07T13:07:04;98097.19;;;9.04;100.00
9035;BME280;4552;43.422;24.592;2024-01-07T13:09:31;98098.34;;;9.19;100.00
9035;BME280;4552;43.422;24.592;2024-01-07T13:18:42;98103.44;;;9.45;100.00
9035;BME280;4552;43.422;24.592;2024-01-07T13:21:09;98108.19;;;9.35;100.00
9035;BME280;4552;43.422;24.592;2024-01-07T13:23:38;98101.13;;;9.37;100.00
9035;BME280;4552;43.422;24.592;2024-01-07T14:09:52;98139.38;;;9.38;100.00
9035;BME280;4552;43.422;24.592;2024-01-07T14:39:44;98140.00;;;8.99;100.00
9035;BME280;4552;43.422;24.592;2024-01-07T14:42:11;98144.38;;;8.98;100.00
9035;BME280;4552;43.422;24.592;2024-01-07T14:44:38;98141.28;;;8.87;100.00
9035;BME280;4552;43.422;24.592;2024-01-07T14:47:05;98135.16;;;8.88;100.00
9035;BME280;4552;43.422;24.592;2024-01-07T14:49:33;98156.72;;;8.93;100.00
9035;BME280;4552;43.422;24.592;2024-01-07T14:52:00;98150.16;;;9.06;100.00
9035;BME280;4552;43.422;24.592;2024-01-07T14:54:27;98151.91;;;9.06;100.00
9035;BME280;4552;43.422;24.592;2024-01-07T14:56:58;98136.59;;;9.20;100.00
9035;BME280;4552;43.422;24.592;2024-01-07T14:59:25;98157.38;;;9.23;100.00
9035;BME280;4552;43.422;24.592;2024-01-07T15:01:52;98167.28;;;9.13;100.00
9035;BME280;4552;43.422;24.592;2024-01-07T15:04:19;98165.78;;;9.08;100.00
9035;BME280;4552;43.422;24.592;2024-01-07T15:06:46;98171.41;;;8.96;100.00
9035;BME280;4552;43.422;24.592;2024-01-07T15:09:14;98170.19;;;8.81;100.00
9035;BME280;4552;43.422;24.592;2024-01-07T15:11:41;98172.53;;;8.89;100.00
9035;BME280;4552;43.422;24.592;2024-01-07T15:14:12;98166.25;;;8.94;100.00
9035;BME280;4552;43.422;24.592;2024-01-07T15:16:38;98162.56;;;9.00;100.00
9035;BME280;4552;43.422;24.592;2024-01-07T15:19:05;98155.03;;;8.92;100.00
9035;BME280;4552;43.422;24.592;2024-01-07T15:21:35;98163.22;;;9.06;100.00
9035;BME280;4552;43.422;24.592;2024-01-07T15:24:03;98160.63;;;8.82;100.00
9035;BME280;4552;43.422;24.592;2024-01-07T15:26:30;98160.34;;;8.64;100.00
9035;BME280;4552;43.422;24.592;2024-01-07T15:28:59;98159.00;;;8.77;100.00
9035;BME280;4552;43.422;24.592;2024-01-07T15:31:28;98158.69;;;8.87;100.00
9035;BME280;4552;43.422;24.592;2024-01-07T15:33:55;98150.81;;;8.63;100.00
9035;BME280;4552;43.422;24.592;2024-01-07T15:36:22;98162.69;;;8.72;100.00
9035;BME280;4552;43.422;24.592;2024-01-07T19:19:32;98353.72;;;8.80;100.00
9035;BME280;4552;43.422;24.592;2024-01-07T19:21:59;98354.38;;;8.85;100.00
9035;BME280;4552;43.422;24.592;2024-01-07T19:24:26;98356.91;;;8.88;100.00
9035;BME280;4552;43.422;24.592;2024-01-07T19:26:56;98357.09;;;8.82;100.00
9035;BME280;4552;43.422;24.592;2024-01-07T19:29:23;98371.25;;;8.75;100.00
9035;BME280;4552;43.422;24.592;2024-01-07T19:31:50;98357.78;;;8.61;100.00
9035;BME280;4552;43.422;24.592;2024-01-07T19:34:20;98367.72;;;8.76;100.00
9035;BME280;4552;43.422;24.592;2024-01-07T19:36:48;98376.75;;;8.66;100.00
9035;BME280;4552;43.422;24.592;2024-01-07T19:39:17;98383.66;;;8.67;100.00
9035;BME280;4552;43.422;24.592;2024-01-07T19:41:45;98373.91;;;8.73;100.00
9035;BME280;4552;43.422;24.592;2024-01-07T19:44:13;98371.53;;;8.66;100.00
9035;BME280;4552;43.422;24.592;2024-01-07T19:46:40;98378.56;;;8.64;100.00
9035;BME280;4552;43.422;24.592;2024-01-07T19:49:08;98359.13;;;8.74;100.00
9035;BME280;4552;43.422;24.592;2024-01-07T19:51:38;98375.03;;;8.65;100.00
9035;BME280;4552;43.422;24.592;2024-01-07T19:54:22;98374.09;;;8.67;100.00
9035;BME280;4552;43.422;24.592;2024-01-07T20:03:49;98366.41;;;8.63;100.00
9035;BME280;4552;43.422;24.592;2024-01-07T20:06:17;98361.50;;;8.54;100.00
9035;BME280;4552;43.422;24.592;2024-01-07T20:08:46;98349.72;;;8.41;100.00
9035;BME280;4552;43.422;24.592;2024-01-07T20:11:21;98360.38;;;8.33;100.00
9035;BME280;4552;43.422;24.592;2024-01-07T20:14:03;98349.00;;;8.07;100.00
9035;BME280;4552;43.422;24.592;2024-01-07T20:19:54;98374.19;;;8.37;100.00
9035;BME280;4552;43.422;24.592;2024-01-07T20:23:04;98365.06;;;8.22;100.00
9035;BME280;4552;43.422;24.592;2024-01-07T20:25:51;98376.94;;;8.32;100.00
9035;BME280;4552;43.422;24.592;2024-01-07T20:28:35;98361.38;;;8.29;100.00
9035;BME280;4552;43.422;24.592;2024-01-07T20:31:09;98378.94;;;8.52;100.00
9035;BME280;4552;43.422;24.592;2024-01-07T20:33:44;98386.91;;;8.75;100.00
9035;BME280;4552;43.422;24.592;2024-01-07T20:36:25;98385.75;;;8.56;100.00
9035;BME280;4552;43.422;24.592;2024-01-07T20:39:17;98395.91;;;8.37;100.00
9035;BME280;4552;43.422;24.592;2024-01-07T20:45:20;98395.94;;;8.36;100.00
9035;BME280;4552;43.422;24.592;2024-01-07T20:47:50;98395.66;;;8.45;100.00
9035;BME280;4552;43.422;24.592;2024-01-07T20:50:28;98386.41;;;8.35;100.00
9035;BME280;4552;43.422;24.592;2024-01-07T20:53:31;98382.28;;;8.28;100.00
9035;BME280;4552;43.422;24.592;2024-01-07T21:19:16;98443.31;;;9.05;100.00
9035;BME280;4552;43.422;24.592;2024-01-07T21:21:45;98439.56;;;8.88;100.00
9035;BME280;4552;43.422;24.592;2024-01-07T21:24:13;98448.84;;;8.96;100.00
9035;BME280;4552;43.422;24.592;2024-01-07T21:26:48;98438.59;;;8.90;100.00
9035;BME280;4552;43.422;24.592;2024-01-07T21:29:24;98444.47;;;8.97;100.00
9035;BME280;4552;43.422;24.592;2024-01-07T21:31:52;98444.78;;;8.88;100.00
9035;BME280;4552;43.422;24.592;2024-01-07T21:34:32;98435.63;;;8.73;100.00
9035;BME280;4552;43.422;24.592;2024-01-07T21:37:12;98435.34;;;8.82;100.00
9035;BME280;4552;43.422;24.592;2024-01-07T21:40:03;98435.59;;;8.74;100.00
9035;BME280;4552;43.422;24.592;2024-01-07T21:42:31;98439.31;;;8.67;100.00
9035;BME280;4552;43.422;24.592;2024-01-07T21:44:58;98435.81;;;8.67;100.00
9035;BME280;4552;43.422;24.592;2024-01-07T21:47:25;98420.81;;;8.75;100.00
9035;BME280;4552;43.422;24.592;2024-01-07T21:49:55;98442.00;;;8.92;100.00
9035;BME280;4552;43.422;24.592;2024-01-07T21:52:22;98440.56;;;8.82;100.00
9035;BME280;4552;43.422;24.592;2024-01-07T21:54:51;98436.69;;;8.67;100.00
9035;BME280;4552;43.422;24.592;2024-01-07T21:57:18;98442.13;;;8.60;100.00
9035;BME280;4552;43.422;24.592;2024-01-07T21:59:45;98448.16;;;8.62;100.00
9035;BME280;4552;43.422;24.592;2024-01-07T22:02:12;98445.53;;;8.62;100.00
9035;BME280;4552;43.422;24.592;2024-01-07T22:04:39;98439.44;;;8.63;100.00
9035;BME280;4552;43.422;24.592;2024-01-07T22:07:08;98432.59;;;8.59;100.00
9035;BME280;4552;43.422;24.592;2024-01-07T22:09:34;98452.09;;;8.75;100.00
9035;BME280;4552;43.422;24.592;2024-01-07T22:12:01;98449.53;;;8.73;100.00
9035;BME280;4552;43.422;24.592;2024-01-07T22:14:28;98452.19;;;8.72;100.00
